createdAt,value
2023-05-05T00:01:08.798Z,71.16
2023-05-05T00:03:35.808Z,71.17
2023-05-05T00:06:03.101Z,71.67
2023-05-05T00:08:30.111Z,71.74
2023-05-05T00:10:57.589Z,72.46
2023-05-05T00:17:11.934Z,72.34
2023-05-05T00:19:38.596Z,72.16
2023-05-05T00:22:05.136Z,71.17
2023-05-05T00:24:31.662Z,70.73
2023-05-05T00:26:58.185Z,70.22
2023-05-05T00:29:24.752Z,71.10
2023-05-05T00:31:52.294Z,70.91
2023-05-05T00:34:19.042Z,70.09
2023-05-05T00:36:45.560Z,70.45
2023-05-05T00:39:12.085Z,70.55
2023-05-05T00:41:38.688Z,70.80
2023-05-05T00:44:05.225Z,71.12
2023-05-05T00:46:34.118Z,72.20
2023-05-05T00:49:01.012Z,72.53
2023-05-05T00:51:28.355Z,73.38
2023-05-05T00:53:55.186Z,73.25
2023-05-05T00:56:22.248Z,73.59
2023-05-05T00:58:49.483Z,73.92
2023-05-05T01:01:16.491Z,73.87
2023-05-05T01:03:43.215Z,74.26
2023-05-05T01:06:31.742Z,73.71
2023-05-05T01:09:24.030Z,74.77
2023-05-05T01:12:05.393Z,75.15
2023-05-05T01:14:45.142Z,75.90
2023-05-05T01:17:20.804Z,76.34
2023-05-05T01:20:01.505Z,75.37
2023-05-05T01:22:35.093Z,74.88
2023-05-05T01:25:22.443Z,75.12
2023-05-05T01:27:51.891Z,75.49
2023-05-05T01:30:50.294Z,75.64
2023-05-05T01:33:20.630Z,75.84
2023-05-05T01:35:51.212Z,75.72
2023-05-05T01:38:22.385Z,76.38
2023-05-05T01:40:52.552Z,76.60
2023-05-05T01:43:20.255Z,77.25
2023-05-05T01:45:48.317Z,77.38
2023-05-05T01:48:18.522Z,77.71
2023-05-05T01:50:46.815Z,77.81
2023-05-05T01:53:13.198Z,78.52
2023-05-05T01:55:40.076Z,78.55
2023-05-05T01:58:07.681Z,78.62
2023-05-05T02:00:34.875Z,79.08
2023-05-05T02:03:04.424Z,79.38
2023-05-05T02:05:33.083Z,79.68
2023-05-05T02:08:00.357Z,79.65
2023-05-05T02:10:27.819Z,80.20
2023-05-05T02:12:54.344Z,80.60
2023-05-05T02:15:22.209Z,81.06
2023-05-05T02:17:52.811Z,81.42
2023-05-05T02:20:20.104Z,82.58
2023-05-05T02:22:46.960Z,82.63
2023-05-05T02:25:13.509Z,83.14
2023-05-05T02:27:42.173Z,83.33
2023-05-05T02:30:10.452Z,83.63
2023-05-05T02:32:45.218Z,83.96
2023-05-05T02:35:15.596Z,84.51
2023-05-05T02:37:45.316Z,84.59
2023-05-05T02:40:13.072Z,84.74
2023-05-05T02:42:41.572Z,85.12
2023-05-05T02:45:12.679Z,85.38
2023-05-05T02:47:39.339Z,85.64
2023-05-05T02:50:07.449Z,86.29
2023-05-05T02:52:34.283Z,86.41
2023-05-05T02:55:01.662Z,86.70
2023-05-05T02:57:48.859Z,86.72
2023-05-05T03:00:19.252Z,87.05
2023-05-05T03:02:55.010Z,87.40
2023-05-05T03:05:23.806Z,87.69
2023-05-05T03:08:03.571Z,87.70
2023-05-05T03:10:34.781Z,87.79
2023-05-05T03:13:02.588Z,87.88
2023-05-05T03:15:32.329Z,87.93
2023-05-05T03:17:59.563Z,88.21
2023-05-05T03:20:26.380Z,88.37
2023-05-05T03:22:53.079Z,88.26
2023-05-05T03:25:19.652Z,88.48
2023-05-05T03:27:46.254Z,88.43
2023-05-05T03:30:13.024Z,88.88
2023-05-05T03:32:39.604Z,88.80
2023-05-05T03:35:06.586Z,89.08
2023-05-05T03:37:33.080Z,89.26
2023-05-05T03:39:59.581Z,89.55
2023-05-05T03:42:26.065Z,90.04
2023-05-05T03:44:53.608Z,90.25
2023-05-05T03:47:20.228Z,90.29
2023-05-05T03:49:46.726Z,90.37
2023-05-05T03:52:14.957Z,90.26
2023-05-05T03:54:43.099Z,90.15
2023-05-05T03:57:09.646Z,90.07
2023-05-05T03:59:36.160Z,90.17
2023-05-05T04:02:02.710Z,90.32
2023-05-05T04:04:29.333Z,90.57
2023-05-05T04:06:56.026Z,90.83
2023-05-05T04:09:22.575Z,90.56
2023-05-05T04:11:49.061Z,90.76
2023-05-05T04:14:15.590Z,91.06
2023-05-05T04:16:42.106Z,90.99
2023-05-05T04:19:08.642Z,91.13
2023-05-05T04:21:35.477Z,91.13
2023-05-05T04:24:02.000Z,91.42
2023-05-05T04:26:28.510Z,91.35
2023-05-05T04:28:55.760Z,91.33
2023-05-05T04:31:22.309Z,91.19
2023-05-05T04:33:48.835Z,91.29
2023-05-05T04:36:15.453Z,91.10
2023-05-05T04:38:42.116Z,91.16
2023-05-05T04:41:08.750Z,90.99
2023-05-05T04:43:35.819Z,90.83
2023-05-05T04:46:02.355Z,90.71
2023-05-05T04:48:28.881Z,90.44
2023-05-05T04:50:55.436Z,90.50
2023-05-05T04:53:21.969Z,90.44
2023-05-05T04:55:48.539Z,90.08
2023-05-05T04:58:15.052Z,90.20
2023-05-05T05:00:41.572Z,89.72
2023-05-05T05:03:08.265Z,89.59
2023-05-05T05:05:35.027Z,89.21
2023-05-05T05:08:01.531Z,88.98
2023-05-05T05:10:28.589Z,88.66
2023-05-05T05:12:55.129Z,88.11
2023-05-05T05:15:21.753Z,87.60
2023-05-05T05:17:48.251Z,87.29
2023-05-05T05:20:14.783Z,86.55
2023-05-05T05:22:42.336Z,86.58
2023-05-05T05:25:09.015Z,85.73
2023-05-05T05:27:35.708Z,85.35
2023-05-05T05:30:03.179Z,84.64
2023-05-05T05:32:29.797Z,84.57
2023-05-05T05:34:56.374Z,84.13
2023-05-05T05:37:22.901Z,84.04
2023-05-05T05:39:52.398Z,83.52
2023-05-05T05:42:18.964Z,83.27
2023-05-05T05:44:45.600Z,82.82
2023-05-05T05:47:12.172Z,82.97
2023-05-05T05:49:38.678Z,82.54
2023-05-05T05:52:05.944Z,82.18
2023-05-05T05:54:34.472Z,82.37
2023-05-05T05:57:02.462Z,82.38
2023-05-05T05:59:29.009Z,82.19
2023-05-05T06:01:56.389Z,82.01
2023-05-05T06:04:22.931Z,83.03
2023-05-05T06:06:49.779Z,82.42
2023-05-05T06:09:16.329Z,82.36
2023-05-05T06:11:42.817Z,81.39
2023-05-05T06:14:09.350Z,80.26
2023-05-05T06:16:35.859Z,79.38
2023-05-05T06:19:02.401Z,79.01
2023-05-05T06:21:29.076Z,78.70
2023-05-05T06:23:55.631Z,78.44
2023-05-05T06:26:22.693Z,78.02
2023-05-05T06:28:49.205Z,77.81
2023-05-05T06:31:15.780Z,77.58
2023-05-05T06:33:42.291Z,77.93
2023-05-05T06:36:09.171Z,78.36
2023-05-05T06:38:35.982Z,78.68
2023-05-05T06:41:02.492Z,79.08
2023-05-05T06:43:29.516Z,78.35
2023-05-05T06:45:56.240Z,78.22
2023-05-05T06:48:22.729Z,77.04
2023-05-05T06:50:49.263Z,76.66
2023-05-05T06:53:15.955Z,76.36
2023-05-05T06:55:46.826Z,76.01
2023-05-05T06:58:13.327Z,75.23
2023-05-05T07:00:40.934Z,74.13
2023-05-05T07:03:07.703Z,74.82
2023-05-05T07:05:34.380Z,73.48
2023-05-05T07:08:01.002Z,72.46
2023-05-05T07:10:28.053Z,73.23
2023-05-05T07:12:55.249Z,73.14
2023-05-05T07:15:28.817Z,73.31
2023-05-05T07:17:56.635Z,72.98
2023-05-05T07:20:23.592Z,73.35
2023-05-05T07:22:50.103Z,73.06
2023-05-05T07:25:16.693Z,71.93
2023-05-05T07:27:43.304Z,72.29
2023-05-05T07:30:13.223Z,72.98
2023-05-05T07:32:40.856Z,72.59
2023-05-05T07:35:07.655Z,71.78
2023-05-05T07:37:34.183Z,71.35
2023-05-05T07:40:00.996Z,71.22
2023-05-05T07:42:27.515Z,71.21
2023-05-05T07:44:54.067Z,70.44
2023-05-05T07:47:20.928Z,70.35
2023-05-05T07:49:47.462Z,71.07
2023-05-05T07:52:13.964Z,69.61
2023-05-05T07:54:41.347Z,70.08
2023-05-05T07:57:08.068Z,69.01
2023-05-05T07:59:34.778Z,68.37
2023-05-05T08:02:01.515Z,67.59
2023-05-05T08:04:28.160Z,68.32
2023-05-05T08:06:54.718Z,68.66
2023-05-05T08:09:21.237Z,69.56
2023-05-05T08:11:47.829Z,69.34
2023-05-05T08:14:15.145Z,69.55
2023-05-05T08:16:41.655Z,69.13
2023-05-05T08:19:21.065Z,67.29
2023-05-05T08:21:51.744Z,67.99
2023-05-05T08:24:18.401Z,68.31
2023-05-05T08:26:45.048Z,68.86
2023-05-05T08:29:11.584Z,68.66
2023-05-05T08:31:38.185Z,67.71
2023-05-05T08:34:05.566Z,67.53
2023-05-05T08:36:32.813Z,68.64
2023-05-05T08:39:00.037Z,67.74
2023-05-05T08:41:26.708Z,67.47
2023-05-05T08:43:53.292Z,65.58
2023-05-05T08:46:19.971Z,66.81
2023-05-05T08:48:48.376Z,66.56
2023-05-05T08:51:19.623Z,66.31
2023-05-05T08:53:58.007Z,66.23
2023-05-05T08:56:36.715Z,65.65
2023-05-05T08:59:03.402Z,66.25
2023-05-05T09:01:32.129Z,67.77
2023-05-05T09:03:59.384Z,68.17
2023-05-05T09:06:27.449Z,68.32
2023-05-05T09:08:54.449Z,68.58
2023-05-05T09:11:22.679Z,68.55
2023-05-05T09:13:49.806Z,69.33
2023-05-05T09:16:16.509Z,71.38
2023-05-05T09:18:43.174Z,72.83
2023-05-05T09:21:26.465Z,74.30
2023-05-05T09:24:09.381Z,75.60
2023-05-05T09:26:38.154Z,77.99
2023-05-05T09:29:05.089Z,79.24
2023-05-05T09:31:32.654Z,80.89
2023-05-05T09:34:01.132Z,79.79
2023-05-05T09:36:49.256Z,78.72
2023-05-05T09:39:20.284Z,77.58
2023-05-05T09:41:47.200Z,77.34
2023-05-05T09:44:17.080Z,77.29
2023-05-05T09:46:52.131Z,76.05
2023-05-05T09:49:20.552Z,75.54
2023-05-05T09:51:47.682Z,76.38
2023-05-05T09:54:30.459Z,74.83
2023-05-05T09:56:57.549Z,74.88
2023-05-05T09:59:24.471Z,75.03
2023-05-05T10:01:51.458Z,76.41
2023-05-05T10:04:28.084Z,75.80
2023-05-05T10:06:56.415Z,76.43
2023-05-05T10:09:26.182Z,77.46
2023-05-05T10:11:53.900Z,78.11
2023-05-05T10:14:21.147Z,79.12
2023-05-05T10:16:52.161Z,79.18
2023-05-05T10:19:20.449Z,79.77
2023-05-05T10:21:50.056Z,79.74
2023-05-05T10:24:16.555Z,81.13
2023-05-05T10:26:44.257Z,81.26
2023-05-05T10:29:17.732Z,82.42
2023-05-05T10:31:54.244Z,83.76
2023-05-05T10:34:25.229Z,83.88
2023-05-05T10:36:53.681Z,84.72
2023-05-05T10:39:20.508Z,84.64
2023-05-05T10:41:47.645Z,86.63
2023-05-05T10:44:14.912Z,88.08
2023-05-05T10:46:41.666Z,87.79
2023-05-05T10:49:36.192Z,88.16
2023-05-05T10:52:11.869Z,88.67
2023-05-05T10:54:42.626Z,87.29
2023-05-05T10:57:10.659Z,87.31
2023-05-05T10:59:37.288Z,87.39
2023-05-05T11:02:19.877Z,87.99
2023-05-05T11:05:08.321Z,88.12
2023-05-05T11:07:35.382Z,88.20
2023-05-05T11:10:06.701Z,87.87
2023-05-05T11:12:57.993Z,88.39
2023-05-05T11:15:27.312Z,89.00
2023-05-05T11:18:03.128Z,88.79
2023-05-05T11:20:39.672Z,88.75
2023-05-05T11:23:06.568Z,88.39
2023-05-05T11:25:45.345Z,88.39
2023-05-05T11:28:13.776Z,89.82
2023-05-05T11:30:55.823Z,89.31
2023-05-05T11:33:29.026Z,89.84
2023-05-05T11:36:05.974Z,90.33
2023-05-05T11:38:38.807Z,91.09
2023-05-05T11:41:14.160Z,90.39
2023-05-05T11:43:41.786Z,89.65
2023-05-05T11:46:14.960Z,90.06
2023-05-05T11:48:48.328Z,89.67
2023-05-05T11:51:16.545Z,89.15
2023-05-05T11:53:44.302Z,89.78
2023-05-05T11:56:12.333Z,90.15
2023-05-05T11:58:39.061Z,89.76
2023-05-05T12:01:08.937Z,90.77
2023-05-05T12:03:36.760Z,91.41
2023-05-05T12:06:04.455Z,91.00
2023-05-05T12:08:38.171Z,90.87
2023-05-05T12:11:09.085Z,90.70
2023-05-05T12:13:35.783Z,90.66
2023-05-05T12:16:15.672Z,90.89
2023-05-05T12:18:42.507Z,90.58
2023-05-05T12:21:19.283Z,91.58
2023-05-05T12:23:46.469Z,91.89
2023-05-05T12:26:31.799Z,91.68
2023-05-05T12:28:59.369Z,91.15
2023-05-05T12:31:39.979Z,90.56
2023-05-05T12:34:08.484Z,89.86
2023-05-05T12:36:35.945Z,90.50
2023-05-05T12:39:04.886Z,90.34
2023-05-05T12:41:32.258Z,90.00
2023-05-05T12:43:59.669Z,90.25
2023-05-05T12:46:27.224Z,89.89
2023-05-05T12:49:00.777Z,89.63
2023-05-05T12:51:28.103Z,89.40
2023-05-05T12:54:02.288Z,89.70
2023-05-05T12:56:38.152Z,89.33
2023-05-05T12:59:06.765Z,89.64
2023-05-05T13:01:34.059Z,89.72
2023-05-05T13:04:11.252Z,89.53
2023-05-05T13:06:42.729Z,89.26
2023-05-05T13:09:10.273Z,88.56
2023-05-05T13:11:37.747Z,87.38
2023-05-05T13:14:04.593Z,85.81
2023-05-05T13:16:31.214Z,86.10
2023-05-05T13:18:58.081Z,85.35
2023-05-05T13:21:24.598Z,84.24
2023-05-05T13:23:51.189Z,84.70
2023-05-05T13:26:18.329Z,84.04
2023-05-05T13:28:44.953Z,83.42
2023-05-05T13:31:11.501Z,82.06
2023-05-05T13:33:38.060Z,81.56
2023-05-05T13:36:04.709Z,80.74
2023-05-05T13:38:34.494Z,81.03
2023-05-05T13:41:01.064Z,80.85
2023-05-05T13:43:27.729Z,78.23
2023-05-05T13:45:55.905Z,77.28
2023-05-05T13:48:25.285Z,77.90
2023-05-05T13:50:51.772Z,78.59
2023-05-05T13:53:18.356Z,77.24
2023-05-05T13:55:45.000Z,76.98
2023-05-05T13:58:11.616Z,77.23
2023-05-05T14:00:38.213Z,77.67
2023-05-05T14:03:05.212Z,76.60
2023-05-05T14:05:32.901Z,74.08
2023-05-05T14:07:59.687Z,73.79
2023-05-05T14:10:29.720Z,70.32
2023-05-05T14:12:56.933Z,70.04
2023-05-05T14:15:23.534Z,69.50
2023-05-05T14:17:50.134Z,69.13
2023-05-05T14:20:16.675Z,68.67
2023-05-05T14:22:43.229Z,70.54
2023-05-05T14:25:10.064Z,71.69
2023-05-05T14:27:36.784Z,71.76
2023-05-05T14:30:04.857Z,71.29
2023-05-05T14:32:31.354Z,69.65
2023-05-05T14:34:58.054Z,69.24
2023-05-05T14:37:24.633Z,68.01
2023-05-05T14:39:51.194Z,67.55
2023-05-05T14:42:17.736Z,67.88
2023-05-05T14:44:44.260Z,67.14
2023-05-05T14:47:10.946Z,64.84
2023-05-05T14:49:37.478Z,65.81
2023-05-05T14:52:04.137Z,66.17
2023-05-05T14:54:30.737Z,65.75
2023-05-05T14:56:58.290Z,64.62
2023-05-05T14:59:24.893Z,63.93
2023-05-05T15:01:51.401Z,65.04
2023-05-05T15:04:18.035Z,64.86
2023-05-05T15:06:44.598Z,62.17
2023-05-05T15:09:11.097Z,64.08
2023-05-05T15:11:38.020Z,63.96
2023-05-05T15:14:04.665Z,64.98
2023-05-05T15:16:32.616Z,65.55
2023-05-05T15:19:00.342Z,65.69
2023-05-05T15:21:26.908Z,66.33
2023-05-05T15:23:53.479Z,65.75
2023-05-05T15:26:20.007Z,67.33
2023-05-05T15:28:48.233Z,65.59
2023-05-05T15:31:16.279Z,66.13
2023-05-05T15:33:44.745Z,64.33
2023-05-05T15:36:11.561Z,62.95
2023-05-05T15:38:42.330Z,63.62
2023-05-05T15:41:08.960Z,62.33
2023-05-05T15:43:35.576Z,61.49
2023-05-05T15:46:02.049Z,57.66
2023-05-05T15:48:28.746Z,55.79
2023-05-05T15:50:55.471Z,52.06
2023-05-05T15:53:22.020Z,53.05
2023-05-05T15:55:48.569Z,52.61
2023-05-05T15:58:15.037Z,55.00
2023-05-05T16:00:41.973Z,53.63
2023-05-05T16:03:08.658Z,53.07
2023-05-05T16:05:35.529Z,52.17
2023-05-05T16:08:02.074Z,51.29
2023-05-05T16:10:28.618Z,52.28
2023-05-05T16:12:55.194Z,49.28
2023-05-05T16:15:21.863Z,51.25
2023-05-05T16:17:48.407Z,50.47
2023-05-05T16:20:14.961Z,51.02
2023-05-05T16:22:41.445Z,52.06
2023-05-05T16:25:08.628Z,51.00
2023-05-05T16:27:35.397Z,51.63
2023-05-05T16:30:02.099Z,50.34
2023-05-05T16:32:28.672Z,50.65
2023-05-05T16:34:55.218Z,51.72
2023-05-05T16:37:21.706Z,51.84
2023-05-05T16:39:48.305Z,52.04
2023-05-05T16:42:14.831Z,52.64
2023-05-05T16:44:41.363Z,54.47
2023-05-05T16:47:07.871Z,55.96
2023-05-05T16:49:34.358Z,58.44
2023-05-05T16:52:00.974Z,57.73
2023-05-05T16:54:27.518Z,57.65
2023-05-05T16:56:54.961Z,59.76
2023-05-05T16:59:21.478Z,61.48
2023-05-05T17:01:48.038Z,62.43
2023-05-05T17:04:14.702Z,62.11
2023-05-05T17:06:41.289Z,63.05
2023-05-05T17:09:07.824Z,64.06
2023-05-05T17:11:34.361Z,61.71
2023-05-05T17:14:01.449Z,59.18
2023-05-05T17:16:27.974Z,58.33
2023-05-05T17:18:54.768Z,57.68
2023-05-05T17:21:21.432Z,56.52
2023-05-05T17:23:47.935Z,57.71
2023-05-05T17:26:14.626Z,55.57
2023-05-05T17:28:41.173Z,54.39
2023-05-05T17:31:07.926Z,54.80
2023-05-05T17:33:34.430Z,53.76
2023-05-05T17:36:00.960Z,54.04
2023-05-05T17:38:27.457Z,54.79
2023-05-05T17:40:54.003Z,54.59
2023-05-05T17:43:20.552Z,55.27
2023-05-05T17:45:47.123Z,53.99
2023-05-05T17:48:13.853Z,53.57
2023-05-05T17:50:43.163Z,54.55
2023-05-05T17:53:10.769Z,55.29
2023-05-05T17:55:37.346Z,56.79
2023-05-05T17:58:03.869Z,57.93
2023-05-05T18:00:30.511Z,60.17
2023-05-05T18:02:57.103Z,60.71
2023-05-05T18:05:23.651Z,61.39
2023-05-05T18:07:50.176Z,62.31
2023-05-05T18:10:16.974Z,63.07
2023-05-05T18:12:43.597Z,62.62
2023-05-05T18:15:10.856Z,62.98
2023-05-05T18:17:37.914Z,64.33
2023-05-05T18:20:06.945Z,64.16
2023-05-05T18:22:34.293Z,64.83
2023-05-05T18:25:01.099Z,64.90
2023-05-05T18:27:28.512Z,65.18
2023-05-05T18:29:55.136Z,65.68
2023-05-05T18:32:21.895Z,66.65
2023-05-05T18:34:48.487Z,67.79
2023-05-05T18:37:15.061Z,68.77
2023-05-05T18:39:43.916Z,68.96
2023-05-05T18:42:12.845Z,69.16
2023-05-05T18:44:39.566Z,69.78
2023-05-05T18:47:06.854Z,69.84
2023-05-05T18:49:34.009Z,69.70
2023-05-05T18:52:00.564Z,70.18
2023-05-05T18:54:27.096Z,70.45
2023-05-05T18:56:53.626Z,71.03
2023-05-05T18:59:20.159Z,70.86
2023-05-05T19:01:46.705Z,70.28
2023-05-05T19:04:26.571Z,70.58
2023-05-05T19:06:56.452Z,71.85
2023-05-05T19:09:23.021Z,71.37
2023-05-05T19:11:49.536Z,71.83
2023-05-05T19:14:17.722Z,72.24
2023-05-05T19:16:44.357Z,73.44
2023-05-05T19:19:11.126Z,73.63
2023-05-05T19:21:37.700Z,74.76
2023-05-05T19:24:04.333Z,75.03
2023-05-05T19:26:31.511Z,75.43
2023-05-05T19:28:58.062Z,75.94
2023-05-05T19:31:27.706Z,76.06
2023-05-05T19:34:01.757Z,75.74
2023-05-05T19:36:28.801Z,75.86
2023-05-05T19:38:55.793Z,75.87
2023-05-05T19:41:22.290Z,76.08
2023-05-05T19:43:49.960Z,75.81
2023-05-05T19:46:19.434Z,76.29
2023-05-05T19:48:46.280Z,76.56
2023-05-05T19:51:13.278Z,77.02
2023-05-05T19:53:40.236Z,77.61
2023-05-05T19:56:07.595Z,77.48
2023-05-05T19:58:52.670Z,77.69
2023-05-05T20:01:19.348Z,78.35
2023-05-05T20:03:46.237Z,79.19
2023-05-05T20:06:12.924Z,79.28
2023-05-05T20:08:39.454Z,79.92
2023-05-05T20:11:05.974Z,80.27
2023-05-05T20:13:34.310Z,80.73
2023-05-05T20:16:01.020Z,81.11
2023-05-05T20:18:27.621Z,81.42
2023-05-05T20:20:54.251Z,81.16
2023-05-05T20:23:20.847Z,80.99
2023-05-05T20:25:47.377Z,80.54
2023-05-05T20:28:13.866Z,80.86
2023-05-05T20:30:40.501Z,81.29
2023-05-05T20:33:07.035Z,81.59
2023-05-05T20:35:34.016Z,81.89
2023-05-05T20:38:00.971Z,81.87
2023-05-05T20:40:27.741Z,81.77
2023-05-05T20:42:54.346Z,82.17
2023-05-05T20:45:20.903Z,82.12
2023-05-05T20:47:47.518Z,82.79
2023-05-05T20:50:14.084Z,82.72
2023-05-05T20:52:40.608Z,82.97
2023-05-05T20:55:07.348Z,83.50
2023-05-05T20:57:33.904Z,83.33
2023-05-05T21:00:00.473Z,83.30
2023-05-05T21:02:27.166Z,83.52
2023-05-05T21:04:53.807Z,83.81
2023-05-05T21:07:20.351Z,83.58
2023-05-05T21:09:47.259Z,83.67
2023-05-05T21:12:13.864Z,83.59
2023-05-05T21:14:44.981Z,83.94
2023-05-05T21:17:11.763Z,83.89
2023-05-05T21:19:38.269Z,84.52
2023-05-05T21:22:04.856Z,84.98
2023-05-05T21:24:31.361Z,85.66
2023-05-05T21:26:57.911Z,86.00
2023-05-05T21:29:24.721Z,86.52
2023-05-05T21:31:51.305Z,86.25
2023-05-05T21:34:18.230Z,85.46
2023-05-05T21:36:44.714Z,85.12
2023-05-05T21:39:11.304Z,83.99
2023-05-05T21:41:37.840Z,82.25
2023-05-05T21:44:04.525Z,81.83
2023-05-05T21:46:31.399Z,81.89
2023-05-05T21:48:58.291Z,81.95
2023-05-05T21:51:24.852Z,82.71
2023-05-05T21:53:51.371Z,83.04
2023-05-05T21:56:17.925Z,83.29
2023-05-05T21:58:44.581Z,83.59
2023-05-05T22:01:12.005Z,84.28
2023-05-05T22:03:38.826Z,84.70
2023-05-05T22:06:05.594Z,84.79
2023-05-05T22:08:32.097Z,85.37
2023-05-05T22:10:58.697Z,85.54
2023-05-05T22:13:25.317Z,85.73
2023-05-05T22:15:51.978Z,86.45
2023-05-05T22:18:18.552Z,86.65
2023-05-05T22:20:45.181Z,86.98
2023-05-05T22:23:11.921Z,87.54
2023-05-05T22:25:38.490Z,87.55
2023-05-05T22:28:05.183Z,87.86
2023-05-05T22:30:31.784Z,88.03
2023-05-05T22:32:58.364Z,88.36
2023-05-05T22:35:24.980Z,88.75
2023-05-05T22:37:51.705Z,88.89
2023-05-05T22:40:18.204Z,88.81
2023-05-05T22:42:44.729Z,88.93
2023-05-05T22:45:11.831Z,89.06
2023-05-05T22:47:38.580Z,88.71
2023-05-05T22:50:05.769Z,88.56
2023-05-05T22:52:32.301Z,88.17
2023-05-05T22:54:59.037Z,87.38
2023-05-05T22:57:25.690Z,86.74
2023-05-05T22:59:52.454Z,86.45
2023-05-05T23:02:19.008Z,85.89
2023-05-05T23:04:45.648Z,86.01
2023-05-05T23:07:12.674Z,85.93
2023-05-05T23:09:39.223Z,86.03
2023-05-05T23:12:05.895Z,86.36
2023-05-05T23:14:32.452Z,86.94
2023-05-05T23:16:59.016Z,87.32
2023-05-05T23:19:26.290Z,87.52
2023-05-05T23:21:53.846Z,87.75
2023-05-05T23:24:21.432Z,87.90
2023-05-05T23:26:47.976Z,87.84
2023-05-05T23:29:14.493Z,88.27
2023-05-05T23:31:41.241Z,88.75
2023-05-05T23:34:07.863Z,88.87
2023-05-05T23:36:34.481Z,89.16
2023-05-05T23:39:01.397Z,89.11
2023-05-05T23:41:27.899Z,89.10
2023-05-05T23:43:54.379Z,89.14
2023-05-05T23:46:21.009Z,89.29
2023-05-05T23:48:47.574Z,89.45
2023-05-05T23:51:14.126Z,89.15
2023-05-05T23:53:40.672Z,89.42
2023-05-05T23:56:07.744Z,89.67
2023-05-05T23:58:34.316Z,89.97
